Time;durP1;ratioP1;P1;durP2;ratioP2;P2;SDS_P1;SDS_P2;PMS_P1;PMS_P2;Temp;Humidity;BMP_temperature;BMP_pressure;BME280_temperature;BME280_humidity;BME280_pressure;Samples;Min_cycle;Max_cycle;Signal;HPM_P1;HPM_P2
2022/11/12 00:00:07;;;;;;;18.47;12.97;;;12.70;99.90;;;;;;5074670;28;20264;-68
2022/11/12 00:02:54;;;;;;;13.87;9.10;;;12.70;99.90;;;;;;5074216;28;20203;-69
2022/11/12 00:05:41;;;;;;;12.17;8.87;;;12.70;99.90;;;;;;5074207;28;20290;-69
2022/11/12 00:08:30;;;;;;;13.53;9.60;;;12.70;99.90;;;;;;5074554;28;20208;-67
2022/11/12 00:11:17;;;;;;;13.77;9.10;;;12.70;99.90;;;;;;5074516;28;20251;-68
2022/11/12 00:14:04;;;;;;;11.67;8.73;;;12.80;99.90;;;;;;5073947;28;20234;-69
2022/11/12 00:16:51;;;;;;;12.83;9.27;;;12.70;99.90;;;;;;5074462;28;20303;-66
2022/11/12 00:19:39;;;;;;;16.37;9.60;;;12.70;99.90;;;;;;5073624;28;20227;-67
2022/11/12 00:22:26;;;;;;;14.13;9.70;;;12.70;99.90;;;;;;5073921;28;20314;-67
2022/11/12 00:25:14;;;;;;;13.20;9.10;;;12.80;99.90;;;;;;5073839;28;20227;-69
2022/11/12 00:28:03;;;;;;;11.50;9.57;;;12.80;99.90;;;;;;5073789;28;20208;-69
2022/11/12 00:30:50;;;;;;;13.20;9.57;;;12.80;99.90;;;;;;5073814;28;20221;-69
2022/11/12 00:33:40;;;;;;;11.90;8.73;;;12.80;99.90;;;;;;5073787;28;20752;-69
2022/11/12 00:36:27;;;;;;;14.53;9.40;;;12.80;99.90;;;;;;5073605;28;20284;-68
2022/11/12 00:39:14;;;;;;;9.97;8.20;;;12.80;99.90;;;;;;5073830;28;20258;-67
2022/11/12 00:42:03;;;;;;;12.03;9.20;;;12.70;99.90;;;;;;5073933;28;20226;-68
2022/11/12 00:44:50;;;;;;;11.60;8.57;;;12.80;99.90;;;;;;5073761;28;20203;-70
2022/11/12 00:47:37;;;;;;;10.93;8.67;;;12.80;99.90;;;;;;5073772;28;20717;-70
2022/11/12 00:50:24;;;;;;;12.20;8.87;;;12.80;99.90;;;;;;5073445;28;20594;-70
2022/11/12 00:53:12;;;;;;;13.40;9.53;;;12.80;99.90;;;;;;5073402;28;20220;-69
2022/11/12 00:56:05;;;;;;;12.53;8.27;;;12.80;99.90;;;;;;5073312;28;20200;-70
2022/11/12 00:58:54;;;;;;;10.87;9.60;;;12.60;99.90;;;;;;5073230;28;20315;-68
2022/11/12 01:01:41;;;;;;;13.90;9.33;;;12.70;99.90;;;;;;5073453;28;20698;-68
2022/11/12 01:04:28;;;;;;;11.87;9.70;;;12.70;99.90;;;;;;5073114;28;20251;-69
2022/11/12 01:07:15;;;;;;;12.97;9.73;;;12.70;99.90;;;;;;5073439;28;20569;-68
2022/11/12 01:10:03;;;;;;;13.67;9.93;;;12.70;99.90;;;;;;5073437;28;20690;-68
2022/11/12 01:12:50;;;;;;;14.00;9.70;;;12.70;99.90;;;;;;5073043;28;20222;-67
2022/11/12 01:15:42;;;;;;;11.90;9.27;;;12.70;99.90;;;;;;5073126;28;20218;-70
2022/11/12 01:18:29;;;;;;;15.60;9.63;;;12.70;99.90;;;;;;5073264;28;20203;-70
2022/11/12 01:21:16;;;;;;;11.23;9.07;;;12.80;99.90;;;;;;5073246;28;20207;-67
2022/11/12 01:24:03;;;;;;;13.63;9.07;;;12.80;99.90;;;;;;5073314;28;20686;-66
2022/11/12 01:26:50;;;;;;;17.30;10.03;;;12.80;99.90;;;;;;5072924;28;20694;-67
2022/11/12 01:29:37;;;;;;;16.40;9.27;;;12.80;99.90;;;;;;5073118;28;20682;-70
2022/11/12 01:32:26;;;;;;;14.93;9.53;;;12.70;99.90;;;;;;5072655;28;20670;-68
2022/11/12 01:35:13;;;;;;;12.67;9.13;;;12.70;99.90;;;;;;5072939;28;20219;-70
2022/11/12 01:38:00;;;;;;;12.27;9.53;;;12.70;99.90;;;;;;5073468;28;20263;-67
2022/11/12 01:40:48;;;;;;;13.67;9.37;;;12.70;99.90;;;;;;5072878;28;20200;-69
2022/11/12 01:43:35;;;;;;;16.73;8.93;;;12.80;99.90;;;;;;5073076;28;20204;-66
2022/11/12 01:46:27;;;;;;;18.57;10.40;;;12.80;99.90;;;;;;5072934;28;20544;-70
2022/11/12 01:49:22;;;;;;;13.27;9.70;;;12.80;99.90;;;;;;5072893;28;20339;-67
2022/11/12 01:52:17;;;;;;;12.27;9.33;;;12.70;99.90;;;;;;5072992;28;20666;-68
2022/11/12 01:55:07;;;;;;;16.17;8.87;;;12.70;99.90;;;;;;5072686;28;20232;-68
2022/11/12 01:57:59;;;;;;;13.20;8.73;;;12.70;99.90;;;;;;5072572;28;20239;-71
2022/11/12 02:00:47;;;;;;;15.10;9.47;;;12.70;99.90;;;;;;5072826;28;20200;-67
2022/11/12 02:03:34;;;;;;;15.97;9.13;;;12.70;99.90;;;;;;5072980;28;20203;-69
2022/11/12 02:06:23;;;;;;;13.83;8.67;;;12.80;99.90;;;;;;5072938;28;20617;-68
2022/11/12 02:09:10;;;;;;;16.40;9.33;;;12.80;99.90;;;;;;5072703;28;20200;-71
2022/11/12 02:11:59;;;;;;;17.37;9.30;;;12.80;99.90;;;;;;5072617;28;20561;-68
2022/11/12 02:14:45;;;;;;;12.53;8.60;;;12.90;99.90;;;;;;5072433;28;20231;-70
2022/11/12 02:17:33;;;;;;;14.53;8.80;;;13.00;99.90;;;;;;5072729;28;20200;-71
2022/11/12 02:20:19;;;;;;;11.87;8.83;;;13.00;99.90;;;;;;5072427;28;20236;-69
2022/11/12 02:23:08;;;;;;;12.20;8.63;;;12.90;99.90;;;;;;5072744;28;20728;-67
2022/11/12 02:25:55;;;;;;;20.27;9.00;;;12.80;99.90;;;;;;5072623;28;20251;-68
2022/11/12 02:28:42;;;;;;;11.60;8.23;;;12.80;99.90;;;;;;5072650;28;20258;-68
2022/11/12 02:31:30;;;;;;;13.40;8.63;;;12.80;99.90;;;;;;5072316;28;20204;-70
2022/11/12 02:34:17;;;;;;;12.90;9.13;;;12.90;99.90;;;;;;5072465;28;20298;-67
2022/11/12 02:37:04;;;;;;;8.83;7.93;;;13.00;99.90;;;;;;5072707;28;20266;-70
2022/11/12 02:39:52;;;;;;;14.13;7.90;;;13.00;99.90;;;;;;5072661;28;20662;-72
2022/11/12 02:42:39;;;;;;;11.63;7.77;;;13.00;99.90;;;;;;5072182;28;20221;-71
2022/11/12 02:45:27;;;;;;;12.17;8.47;;;13.00;99.90;;;;;;5075336;28;20204;-69
2022/11/12 02:48:14;;;;;;;13.30;7.77;;;13.00;99.90;;;;;;5076201;28;20212;-68
2022/11/12 02:51:05;;;;;;;12.90;8.93;;;13.00;99.90;;;;;;5075648;28;20254;-70
2022/11/12 02:53:52;;;;;;;15.23;7.40;;;13.00;99.90;;;;;;5075473;28;20241;-70
2022/11/12 02:56:40;;;;;;;13.63;8.67;;;12.90;99.90;;;;;;5075906;28;20223;-70
2022/11/12 02:59:27;;;;;;;13.87;8.33;;;13.00;99.90;;;;;;5075810;28;20207;-70
2022/11/12 03:02:14;;;;;;;11.83;8.17;;;12.90;99.90;;;;;;5075535;28;20223;-70
2022/11/12 03:05:02;;;;;;;15.50;8.20;;;13.00;99.90;;;;;;5075679;28;20202;-67
2022/11/12 03:07:49;;;;;;;12.87;7.87;;;12.90;99.90;;;;;;5075368;28;20246;-68
2022/11/12 03:10:38;;;;;;;11.63;8.27;;;13.00;99.90;;;;;;5075657;28;20282;-68
2022/11/12 03:13:26;;;;;;;16.00;7.60;;;13.00;99.90;;;;;;5075464;28;20208;-70
2022/11/12 03:16:13;;;;;;;12.90;7.83;;;13.10;99.90;;;;;;5075038;28;20235;-66
2022/11/12 03:19:00;;;;;;;11.57;7.80;;;13.10;99.90;;;;;;5075133;28;20312;-71
2022/11/12 03:21:47;;;;;;;11.97;7.00;;;13.00;99.90;;;;;;5075113;28;20199;-69
2022/11/12 03:24:34;;;;;;;13.43;7.83;;;13.00;99.90;;;;;;5075041;28;20203;-70
2022/11/12 03:27:21;;;;;;;14.27;7.13;;;13.00;99.90;;;;;;5075158;28;20238;-68
2022/11/12 03:30:09;;;;;;;9.77;6.53;;;13.00;99.90;;;;;;5075112;28;20204;-71
2022/11/12 03:32:56;;;;;;;10.30;6.07;;;13.10;99.90;;;;;;5074892;28;20200;-69
2022/11/12 03:35:44;;;;;;;13.57;7.63;;;13.00;99.90;;;;;;5075038;28;20258;-68
2022/11/12 03:38:31;;;;;;;16.53;7.00;;;13.10;99.90;;;;;;5074810;28;20688;-71
2022/11/12 03:41:18;;;;;;;9.73;6.43;;;13.10;99.90;;;;;;5074695;28;20571;-69
2022/11/12 03:44:05;;;;;;;16.70;7.03;;;13.10;99.90;;;;;;5074844;28;20204;-68
2022/11/12 03:46:53;;;;;;;16.40;6.97;;;13.20;99.90;;;;;;5074473;28;20685;-69
2022/11/12 03:49:41;;;;;;;18.00;6.57;;;13.10;99.90;;;;;;5075017;28;20211;-71
2022/11/12 03:52:27;;;;;;;8.67;6.43;;;13.10;99.90;;;;;;5074860;28;20708;-71
2022/11/12 03:55:16;;;;;;;13.27;7.27;;;13.10;99.90;;;;;;5074432;28;20238;-69
2022/11/12 03:58:03;;;;;;;10.83;6.10;;;13.10;99.90;;;;;;5074532;28;20743;-68
2022/11/12 04:00:50;;;;;;;13.43;6.07;;;13.10;99.90;;;;;;5074605;28;20662;-71
2022/11/12 04:03:38;;;;;;;11.13;6.17;;;13.10;99.90;;;;;;5074316;28;20258;-68
2022/11/12 04:09:30;;;;;;;15.40;6.27;;;13.20;99.90;;;;;;5074233;28;20266;-67
2022/11/12 04:15:21;;;;;;;10.83;6.10;;;13.10;99.90;;;;;;5073860;28;20220;-72
2022/11/12 04:27:32;;;;;;;12.80;6.37;;;13.20;99.90;;;;;;5073859;28;20716;-69
2022/11/12 04:30:18;;;;;;;9.93;6.13;;;13.20;99.90;;;;;;5073748;28;20239;-70
2022/11/12 04:33:05;;;;;;;15.27;7.03;;;13.20;99.90;;;;;;5074092;28;20216;-69
2022/11/12 04:35:51;;;;;;;13.43;7.03;;;13.30;99.90;;;;;;5073583;28;20576;-70
2022/11/12 04:38:39;;;;;;;11.97;6.47;;;13.20;99.90;;;;;;5073705;28;20251;-68
2022/11/12 04:47:37;;;;;;;13.33;7.73;;;13.20;99.90;;;;;;5073801;28;20258;-71
2022/11/12 04:50:24;;;;;;;11.00;7.27;;;13.20;99.90;;;;;;5073762;28;20205;-72
2022/11/12 04:53:11;;;;;;;13.10;6.53;;;13.20;99.90;;;;;;5073495;28;20702;-68
2022/11/12 04:55:59;;;;;;;10.70;6.70;;;13.20;99.90;;;;;;5073284;28;20231;-69
2022/11/12 04:58:47;;;;;;;8.33;6.20;;;13.30;99.90;;;;;;5073675;28;20200;-67
2022/11/12 05:01:34;;;;;;;14.03;6.97;;;13.20;99.90;;;;;;5073666;28;20297;-67
2022/11/12 05:04:21;;;;;;;12.87;6.70;;;13.20;99.90;;;;;;5073604;28;20750;-70
2022/11/12 05:07:09;;;;;;;12.30;6.00;;;13.20;99.90;;;;;;5072767;28;20223;-68
2022/11/12 05:09:56;;;;;;;10.97;6.73;;;13.20;99.90;;;;;;5073424;28;20199;-71
2022/11/12 05:12:44;;;;;;;11.10;6.07;;;13.20;99.90;;;;;;5073411;28;20331;-70
2022/11/12 05:15:31;;;;;;;9.43;6.10;;;13.20;99.90;;;;;;5073175;28;20340;-68
2022/11/12 05:18:18;;;;;;;8.37;5.37;;;13.20;99.90;;;;;;5073197;28;20259;-70
2022/11/12 05:24:07;;;;;;;9.23;5.77;;;13.30;99.90;;;;;;5073325;28;20689;-71
2022/11/12 05:27:11;;;;;;;10.53;5.53;;;13.20;99.90;;;;;;5073248;28;20293;-68
2022/11/12 05:29:59;;;;;;;8.73;5.73;;;13.20;99.90;;;;;;5073188;28;20212;-69
2022/11/12 05:32:46;;;;;;;10.50;5.30;;;13.20;99.90;;;;;;5072991;28;20231;-69
2022/11/12 05:35:33;;;;;;;10.47;5.30;;;13.30;99.90;;;;;;5073116;28;20250;-70
2022/11/12 05:38:20;;;;;;;12.30;5.17;;;13.20;99.90;;;;;;5073166;28;20253;-71
2022/11/12 05:41:06;;;;;;;10.07;5.60;;;13.20;99.90;;;;;;5073097;28;20208;-67
2022/11/12 05:43:53;;;;;;;6.27;4.67;;;13.30;99.90;;;;;;5072785;28;20315;-68
2022/11/12 05:46:42;;;;;;;8.87;5.47;;;13.30;99.90;;;;;;5073102;28;20236;-68
2022/11/12 05:49:29;;;;;;;12.33;5.60;;;13.30;99.90;;;;;;5073315;28;20693;-70
2022/11/12 05:52:16;;;;;;;14.30;5.17;;;13.40;99.90;;;;;;5072948;28;20670;-69
2022/11/12 05:55:03;;;;;;;10.90;5.47;;;13.40;99.90;;;;;;5072817;28;20720;-71
2022/11/12 05:57:51;;;;;;;13.37;5.07;;;13.30;99.90;;;;;;5072975;28;20208;-68
2022/11/12 06:00:38;;;;;;;7.63;4.47;;;13.30;99.90;;;;;;5072885;28;20198;-73
2022/11/12 06:03:28;;;;;;;13.23;5.53;;;13.30;99.90;;;;;;5072644;28;20200;-67
2022/11/12 06:06:15;;;;;;;7.30;4.50;;;13.30;99.90;;;;;;5072758;28;20211;-67
2022/11/12 06:09:03;;;;;;;6.00;4.47;;;13.30;99.90;;;;;;5072876;28;20208;-70
2022/11/12 06:11:50;;;;;;;8.80;5.27;;;13.30;99.90;;;;;;5072572;28;20337;-71
2022/11/12 06:14:37;;;;;;;9.47;4.33;;;13.40;99.90;;;;;;5072548;28;20254;-68
2022/11/12 06:17:24;;;;;;;6.43;4.87;;;13.40;99.90;;;;;;5072376;28;20353;-68
2022/11/12 06:20:13;;;;;;;7.63;4.70;;;13.30;99.90;;;;;;5075262;28;20235;-65
2022/11/12 06:23:00;;;;;;;10.37;5.17;;;13.30;99.90;;;;;;5076510;28;20288;-66
2022/11/12 06:25:48;;;;;;;8.50;5.03;;;13.40;99.90;;;;;;5076590;28;20229;-69
2022/11/12 06:28:34;;;;;;;7.50;4.60;;;13.40;99.90;;;;;;5076372;28;20216;-69
2022/11/12 06:31:22;;;;;;;9.27;4.47;;;13.40;99.90;;;;;;5076292;28;20701;-68
2022/11/12 06:34:11;;;;;;;5.90;4.27;;;13.40;99.90;;;;;;5076070;28;20277;-68
2022/11/12 06:36:59;;;;;;;7.93;5.37;;;13.40;99.90;;;;;;5076441;28;20235;-67
2022/11/12 06:39:47;;;;;;;8.23;5.10;;;13.40;99.90;;;;;;5075826;28;20247;-67
2022/11/12 06:42:34;;;;;;;8.90;4.83;;;13.40;99.90;;;;;;5076120;28;20226;-71
2022/11/12 06:45:21;;;;;;;9.27;4.37;;;13.40;99.90;;;;;;5075631;28;20572;-69
2022/11/12 06:48:08;;;;;;;8.10;5.07;;;13.30;99.90;;;;;;5076075;28;20243;-68
2022/11/12 06:50:56;;;;;;;8.87;4.77;;;13.40;99.90;;;;;;5075808;28;20258;-67
2022/11/12 06:53:44;;;;;;;8.73;5.23;;;13.50;99.90;;;;;;5075619;28;20199;-67
2022/11/12 06:56:32;;;;;;;8.67;4.73;;;13.50;99.90;;;;;;5075580;28;20232;-66
2022/11/12 06:59:19;;;;;;;10.33;5.30;;;13.50;99.90;;;;;;5075843;28;20281;-71
2022/11/12 07:02:07;;;;;;;11.77;5.00;;;13.50;99.90;;;;;;5075749;28;20215;-70
2022/11/12 07:04:54;;;;;;;10.97;4.97;;;13.50;99.90;;;;;;5075710;28;20207;-70
2022/11/12 07:07:41;;;;;;;8.67;5.23;;;13.50;99.90;;;;;;5075546;28;20216;-70
2022/11/12 07:10:29;;;;;;;6.50;4.90;;;13.50;99.90;;;;;;5075654;28;20684;-68
2022/11/12 07:13:17;;;;;;;10.57;4.80;;;13.50;99.90;;;;;;5075280;28;20196;-70
2022/11/12 07:16:06;;;;;;;18.03;7.27;;;13.60;99.90;;;;;;5075334;28;20227;-68
2022/11/12 07:18:54;;;;;;;7.27;5.57;;;13.60;99.90;;;;;;5075032;28;20284;-68
2022/11/12 07:21:41;;;;;;;8.43;5.43;;;13.70;99.90;;;;;;5075209;28;20282;-68
2022/11/12 07:24:27;;;;;;;10.10;5.20;;;13.60;99.90;;;;;;5075530;28;20223;-66
2022/11/12 07:27:16;;;;;;;7.03;5.13;;;13.60;99.90;;;;;;5075453;28;20290;-69
2022/11/12 07:30:05;;;;;;;10.10;5.30;;;13.60;99.90;;;;;;5074678;28;20554;-67
2022/11/12 07:32:51;;;;;;;9.50;4.93;;;13.70;99.90;;;;;;5074973;28;20392;-66
2022/11/12 07:35:39;;;;;;;11.37;4.50;;;13.70;99.90;;;;;;5074933;28;20685;-67
2022/11/12 07:38:27;;;;;;;6.57;5.03;;;13.60;99.90;;;;;;5074944;28;20290;-67
2022/11/12 07:41:16;;;;;;;11.67;4.73;;;13.60;99.90;;;;;;5075540;28;20204;-67
2022/11/12 07:44:05;;;;;;;10.97;4.90;;;13.60;99.90;;;;;;5075060;28;20292;-69
2022/11/12 07:46:52;;;;;;;8.60;4.70;;;13.70;99.90;;;;;;5074810;28;20224;-71
2022/11/12 07:49:39;;;;;;;11.37;5.17;;;13.70;99.90;;;;;;5074974;28;20254;-70
2022/11/12 07:52:26;;;;;;;8.57;4.83;;;13.70;99.90;;;;;;5074738;28;20263;-67
2022/11/12 07:55:13;;;;;;;7.47;5.20;;;13.70;99.90;;;;;;5074481;28;20244;-67
2022/11/12 07:58:00;;;;;;;7.70;4.40;;;13.70;99.90;;;;;;5074187;28;20235;-70
2022/11/12 08:00:49;;;;;;;6.10;4.23;;;13.80;99.90;;;;;;5074490;28;20199;-69
2022/11/12 08:03:36;;;;;;;6.63;4.70;;;13.80;99.90;;;;;;5074328;28;20208;-69
2022/11/12 08:06:23;;;;;;;9.40;4.90;;;13.80;99.90;;;;;;5074483;28;20293;-69
2022/11/12 08:09:10;;;;;;;13.40;4.57;;;13.80;99.90;;;;;;5074472;28;20207;-68
2022/11/12 08:11:57;;;;;;;9.90;5.63;;;13.90;99.90;;;;;;5074503;28;20288;-67
2022/11/12 08:14:44;;;;;;;11.67;5.77;;;13.90;99.90;;;;;;5074053;28;20567;-66
2022/11/12 08:17:33;;;;;;;12.43;6.40;;;13.90;99.90;;;;;;5073836;28;20720;-67
2022/11/12 08:20:20;;;;;;;10.07;6.13;;;14.00;99.90;;;;;;5073902;28;20242;-67
2022/11/12 08:23:07;;;;;;;13.37;7.23;;;14.00;99.90;;;;;;5074131;28;20559;-66
2022/11/12 08:25:58;;;;;;;8.07;5.63;;;13.90;99.90;;;;;;5073901;28;20569;-67
2022/11/12 08:28:46;;;;;;;15.03;6.27;;;14.00;99.90;;;;;;5073182;28;20200;-64
2022/11/12 08:31:32;;;;;;;10.40;5.40;;;14.00;99.90;;;;;;5068473;28;20212;-71
2022/11/12 08:34:21;;;;;;;8.70;5.33;;;13.90;99.90;;;;;;5065954;28;20204;-70
2022/11/12 08:37:09;;;;;;;8.73;5.57;;;14.00;99.90;;;;;;5063007;28;20630;-67
2022/11/12 08:39:55;;;;;;;8.07;5.53;;;14.00;99.90;;;;;;5073528;28;20206;-67
2022/11/12 08:42:42;;;;;;;9.07;5.17;;;14.00;99.90;;;;;;5072974;28;20745;-70
2022/11/12 08:45:31;;;;;;;8.60;5.03;;;14.00;99.90;;;;;;5073861;28;20208;-69
2022/11/12 08:48:18;;;;;;;6.40;4.90;;;14.00;99.90;;;;;;5073175;28;20265;-66
2022/11/12 08:51:07;;;;;;;9.83;5.20;;;14.00;99.90;;;;;;5073567;28;20216;-67
2022/11/12 08:53:55;;;;;;;9.43;5.40;;;14.10;99.90;;;;;;5073321;28;20264;-67
2022/11/12 08:56:42;;;;;;;12.73;5.47;;;14.00;99.90;;;;;;5073185;28;20228;-68
2022/11/12 08:59:29;;;;;;;27.20;16.53;;;14.10;99.90;;;;;;5072934;28;20609;-70
2022/11/12 09:02:16;;;;;;;7.97;5.40;;;14.10;99.90;;;;;;5073028;28;20269;-71
2022/11/12 09:05:03;;;;;;;14.13;5.23;;;14.10;99.90;;;;;;5073849;28;20294;-68
2022/11/12 09:07:58;;;;;;;10.53;5.07;;;14.10;99.90;;;;;;5072842;28;20685;-70
2022/11/12 09:10:46;;;;;;;10.83;6.17;;;14.20;99.90;;;;;;5073292;28;20221;-71
2022/11/12 09:13:34;;;;;;;8.83;5.53;;;14.20;99.90;;;;;;5073300;28;20208;-70
2022/11/12 09:16:23;;;;;;;10.30;5.57;;;14.10;99.90;;;;;;5072441;28;20207;-70
2022/11/12 09:19:09;;;;;;;12.00;6.23;;;14.20;99.90;;;;;;5072977;28;20235;-69
2022/11/12 09:21:56;;;;;;;14.30;6.87;;;14.10;99.90;;;;;;5073363;28;20207;-66
2022/11/12 09:24:44;;;;;;;12.33;6.37;;;14.10;99.90;;;;;;5073025;28;20571;-71
2022/11/12 09:27:32;;;;;;;9.70;5.90;;;14.00;99.90;;;;;;5073003;28;20197;-68
2022/11/12 09:30:19;;;;;;;11.70;6.20;;;14.00;99.90;;;;;;5072789;28;20204;-67
2022/11/12 09:33:06;;;;;;;12.97;6.20;;;14.00;99.90;;;;;;5073274;28;20204;-68
2022/11/12 09:35:54;;;;;;;13.67;7.07;;;14.00;99.90;;;;;;5073126;28;20212;-66
2022/11/12 09:38:41;;;;;;;22.73;8.63;;;14.00;99.90;;;;;;5072619;28;20805;-68
2022/11/12 09:41:34;;;;;;;13.63;6.87;;;14.00;99.90;;;;;;5073058;28;20202;-66
2022/11/12 09:44:23;;;;;;;13.57;6.37;;;14.10;99.90;;;;;;5072902;28;20212;-66
2022/11/12 09:47:15;;;;;;;12.90;6.00;;;14.00;99.90;;;;;;5072828;28;20204;-67
2022/11/12 09:50:20;;;;;;;14.83;5.93;;;14.10;99.90;;;;;;5072594;28;20327;-69
2022/11/12 09:53:14;;;;;;;19.80;9.20;;;14.20;99.90;;;;;;5074176;28;20292;-67
2022/11/12 09:56:05;;;;;;;15.37;6.93;;;14.20;99.90;;;;;;5077027;28;20209;-66
2022/11/12 09:58:54;;;;;;;15.87;7.37;;;14.10;99.90;;;;;;5076558;28;20239;-67
2022/11/12 10:01:52;;;;;;;10.53;6.03;;;14.10;99.90;;;;;;5076473;28;20564;-66
2022/11/12 10:05:11;;;;;;;9.83;5.53;;;14.20;99.90;;;;;;5076992;28;20281;-70
2022/11/12 10:08:16;;;;;;;11.73;6.30;;;14.20;99.90;;;;;;5076714;28;20251;-68
2022/11/12 10:11:18;;;;;;;15.37;6.50;;;14.20;99.90;;;;;;5076760;28;20295;-68
2022/11/12 10:14:18;;;;;;;12.83;5.80;;;14.20;99.90;;;;;;5076545;28;20263;-68
2022/11/12 10:17:11;;;;;;;13.23;6.37;;;14.30;99.90;;;;;;5076427;28;20207;-71
2022/11/12 10:20:09;;;;;;;18.43;6.80;;;14.20;99.90;;;;;;5076190;28;20278;-69
2022/11/12 10:23:11;;;;;;;10.80;6.60;;;14.30;99.90;;;;;;5076510;28;20294;-68
2022/11/12 10:26:01;;;;;;;9.70;5.67;;;14.20;99.90;;;;;;5076189;28;20297;-70
2022/11/12 10:28:52;;;;;;;12.87;6.27;;;14.20;99.90;;;;;;5076104;28;20200;-68
2022/11/12 10:31:40;;;;;;;18.87;6.30;;;14.20;99.90;;;;;;5076217;28;20201;-71
2022/11/12 10:34:29;;;;;;;10.20;6.23;;;14.20;99.90;;;;;;5076045;28;20197;-67
2022/11/12 10:37:23;;;;;;;14.83;7.27;;;14.10;99.90;;;;;;5075858;28;20195;-69
2022/11/12 10:40:29;;;;;;;15.23;6.50;;;14.10;99.90;;;;;;5076156;28;20266;-71
2022/11/12 10:43:25;;;;;;;14.70;6.33;;;14.10;99.90;;;;;;5075701;28;20223;-68
2022/11/12 10:46:20;;;;;;;17.00;6.77;;;14.10;99.90;;;;;;5075647;28;20195;-72
2022/11/12 10:49:25;;;;;;;21.00;7.50;;;14.20;99.90;;;;;;5075838;28;20324;-70
2022/11/12 10:52:23;;;;;;;14.67;7.83;;;14.20;99.90;;;;;;5075918;28;20652;-70
2022/11/12 10:55:16;;;;;;;15.90;7.43;;;14.10;99.90;;;;;;5076007;28;20207;-67
2022/11/12 10:58:15;;;;;;;14.40;8.37;;;14.20;99.90;;;;;;5075777;28;20221;-69
2022/11/12 11:01:03;;;;;;;14.10;6.73;;;14.10;99.90;;;;;;5075698;28;20207;-69
2022/11/12 11:03:55;;;;;;;14.43;8.03;;;14.10;99.90;;;;;;5075616;28;20208;-67
2022/11/12 11:06:45;;;;;;;11.57;6.50;;;14.10;99.90;;;;;;5075618;28;20199;-71
2022/11/12 11:09:33;;;;;;;15.90;8.47;;;14.10;99.90;;;;;;5075708;28;20282;-69
2022/11/12 11:12:25;;;;;;;21.60;8.97;;;14.00;99.90;;;;;;5075693;28;20282;-69
2022/11/12 11:15:20;;;;;;;15.17;8.20;;;14.10;99.90;;;;;;5075379;28;20678;-70
2022/11/12 11:18:10;;;;;;;12.50;6.50;;;14.00;99.90;;;;;;5075219;28;20216;-70
2022/11/12 11:21:07;;;;;;;16.90;7.77;;;14.10;99.90;;;;;;5075080;28;20582;-73
2022/11/12 11:24:04;;;;;;;13.90;7.83;;;14.10;99.90;;;;;;5075412;28;20782;-67
2022/11/12 11:27:00;;;;;;;16.07;8.20;;;14.10;99.90;;;;;;5075131;28;20695;-71
2022/11/12 11:30:05;;;;;;;18.13;9.50;;;14.10;99.90;;;;;;5075321;28;20223;-71
2022/11/12 11:33:28;;;;;;;14.60;8.57;;;14.00;99.90;;;;;;5075173;28;20247;-69
2022/11/12 11:36:23;;;;;;;20.90;9.60;;;14.10;99.90;;;;;;5013069;28;20227;-73
2022/11/12 11:39:22;;;;;;;12.67;6.87;;;14.00;99.90;;;;;;5012925;28;20305;-72
2022/11/12 11:42:24;;;;;;;14.67;8.17;;;14.10;99.90;;;;;;5013215;28;20210;-71
2022/11/12 11:45:17;;;;;;;13.37;7.33;;;14.10;99.90;;;;;;5013166;28;20634;-67
2022/11/12 11:48:15;;;;;;;14.80;8.10;;;14.10;99.90;;;;;;5013293;28;20714;-67
2022/11/12 11:51:08;;;;;;;18.73;8.90;;;14.10;99.90;;;;;;5012899;28;20276;-69
2022/11/12 11:54:08;;;;;;;16.93;7.27;;;14.10;99.90;;;;;;5012802;28;20208;-71
2022/11/12 11:57:00;;;;;;;14.77;7.63;;;14.10;99.90;;;;;;5012688;28;20303;-68
2022/11/12 12:00:04;;;;;;;20.27;8.73;;;14.10;99.90;;;;;;5012481;28;20326;-70
2022/11/12 12:03:16;;;;;;;14.20;7.93;;;14.20;99.90;;;;;;5012647;28;20199;-71
2022/11/12 12:06:19;;;;;;;23.30;8.10;;;14.10;99.90;;;;;;5012700;28;20218;-71
2022/11/12 12:09:20;;;;;;;16.50;8.97;;;14.20;99.90;;;;;;5012408;28;20222;-69
2022/11/12 12:12:20;;;;;;;16.17;7.17;;;14.20;99.90;;;;;;5023251;28;20204;-71
2022/11/12 12:15:27;;;;;;;13.87;7.43;;;14.30;99.90;;;;;;5073918;28;20205;-69
2022/11/12 12:18:26;;;;;;;21.17;8.33;;;14.20;99.90;;;;;;5074021;28;20220;-69
2022/11/12 12:21:16;;;;;;;19.90;8.27;;;14.20;99.90;;;;;;5073994;28;20205;-71
2022/11/12 12:24:10;;;;;;;11.43;6.63;;;14.30;99.90;;;;;;5074343;28;20204;-71
2022/11/12 12:27:03;;;;;;;13.83;7.60;;;14.30;99.90;;;;;;5073865;28;20259;-69
2022/11/12 12:29:55;;;;;;;12.93;7.00;;;14.20;99.90;;;;;;5074086;28;20299;-67
2022/11/12 12:32:47;;;;;;;20.97;7.70;;;14.20;99.90;;;;;;5073973;28;20208;-67
2022/11/12 12:35:39;;;;;;;16.20;7.70;;;14.30;99.90;;;;;;5073537;28;20202;-68
2022/11/12 12:38:33;;;;;;;18.03;8.20;;;14.20;99.90;;;;;;5073437;28;20223;-70
2022/11/12 12:41:26;;;;;;;18.40;8.03;;;14.20;99.90;;;;;;5073697;28;20196;-70
2022/11/12 12:44:13;;;;;;;17.60;8.27;;;14.20;99.90;;;;;;5073601;28;20682;-68
2022/11/12 12:47:03;;;;;;;16.43;9.10;;;14.10;99.90;;;;;;5073411;28;20690;-71
2022/11/12 12:49:51;;;;;;;16.87;8.47;;;14.10;99.90;;;;;;5073854;28;20677;-67
2022/11/12 12:53:00;;;;;;;19.47;9.80;;;14.00;99.90;;;;;;5073414;28;20239;-68
2022/11/12 12:55:48;;;;;;;17.07;9.30;;;14.00;99.90;;;;;;5011520;28;20306;-72
2022/11/12 12:58:43;;;;;;;15.47;9.27;;;14.00;99.90;;;;;;5009823;28;20226;-70
2022/11/12 13:01:33;;;;;;;14.07;8.57;;;14.00;99.90;;;;;;5011710;28;20636;-68
2022/11/12 13:04:51;;;;;;;20.60;9.67;;;14.00;99.90;;;;;;5011685;28;20215;-70
2022/11/12 13:07:42;;;;;;;21.37;9.00;;;14.00;99.90;;;;;;5011582;28;20207;-69
2022/11/12 13:10:51;;;;;;;16.57;9.40;;;14.00;99.90;;;;;;5011423;28;20265;-70
2022/11/12 13:13:39;;;;;;;16.37;10.03;;;14.00;99.90;;;;;;4952882;28;20250;-70
2022/11/12 13:16:56;;;;;;;14.07;9.07;;;14.10;99.90;;;;;;4952977;29;20203;-70
2022/11/12 13:20:07;;;;;;;13.10;8.67;;;14.00;99.90;;;;;;4895636;29;20756;-71
2022/11/12 13:22:54;;;;;;;19.50;9.33;;;13.90;99.90;;;;;;4896227;29;20231;-68
2022/11/12 13:25:41;;;;;;;16.90;10.33;;;13.90;99.90;;;;;;4895786;29;20279;-69
2022/11/12 13:28:28;;;;;;;21.23;10.47;;;14.10;99.90;;;;;;4895485;29;20213;-71
2022/11/12 13:31:27;;;;;;;23.43;10.77;;;14.10;99.90;;;;;;4895848;29;20216;-71
2022/11/12 13:34:21;;;;;;;21.20;10.60;;;14.00;99.90;;;;;;4934007;29;20216;-69
2022/11/12 13:37:20;;;;;;;19.40;10.70;;;14.00;99.90;;;;;;4933904;29;20205;-71
2022/11/12 13:40:13;;;;;;;18.40;10.00;;;14.10;99.90;;;;;;4933502;29;20730;-69
2022/11/12 13:43:07;;;;;;;17.77;12.80;;;14.00;99.90;;;;;;4933853;29;20677;-68
2022/11/12 13:45:59;;;;;;;19.70;10.53;;;14.00;99.90;;;;;;4933496;29;20213;-68
2022/11/12 13:48:48;;;;;;;14.00;9.90;;;14.00;99.90;;;;;;4933339;29;20743;-69
2022/11/12 13:51:39;;;;;;;19.57;9.90;;;14.00;99.90;;;;;;5010182;28;20259;-71
2022/11/12 13:54:37;;;;;;;20.70;9.57;;;14.00;99.90;;;;;;5011003;28;20324;-71
2022/11/12 13:57:31;;;;;;;14.67;9.47;;;14.00;99.90;;;;;;5072334;28;20254;-72
2022/11/12 14:00:26;;;;;;;18.03;11.00;;;14.10;99.90;;;;;;5072516;28;20721;-70
2022/11/12 14:03:18;;;;;;;33.03;18.67;;;14.20;99.90;;;;;;5072834;28;20225;-69
2022/11/12 14:06:14;;;;;;;17.63;10.37;;;14.30;99.90;;;;;;5072748;28;20687;-70
2022/11/12 14:09:26;;;;;;;22.03;13.27;;;14.20;99.90;;;;;;5072777;28;20220;-68
2022/11/12 14:12:37;;;;;;;25.10;13.97;;;14.10;99.90;;;;;;5072645;28;20706;-71
2022/11/12 14:15:34;;;;;;;27.17;17.37;;;14.20;99.90;;;;;;5072573;28;20239;-70
2022/11/12 14:18:30;;;;;;;20.93;10.30;;;14.20;99.90;;;;;;5072649;28;20204;-70
2022/11/12 14:21:18;;;;;;;24.47;12.77;;;14.10;99.90;;;;;;5072238;28;20540;-72
2022/11/12 14:24:05;;;;;;;19.70;11.23;;;14.20;99.90;;;;;;5072229;28;20275;-71
2022/11/12 14:26:52;;;;;;;22.03;12.27;;;14.10;99.90;;;;;;5072467;28;20251;-72
2022/11/12 14:29:40;;;;;;;18.93;9.80;;;14.10;99.90;;;;;;5072499;28;20208;-67
2022/11/12 14:32:35;;;;;;;16.40;9.50;;;14.10;99.90;;;;;;5072320;28;20212;-66
2022/11/12 14:35:40;;;;;;;19.87;9.67;;;14.10;99.90;;;;;;5072451;28;20317;-70
2022/11/12 14:38:31;;;;;;;19.93;10.90;;;14.10;99.90;;;;;;5072203;28;20209;-70
2022/11/12 14:41:21;;;;;;;17.80;10.10;;;14.10;99.90;;;;;;5075138;28;20604;-70
2022/11/12 14:44:16;;;;;;;16.90;8.87;;;14.10;99.90;;;;;;5075703;28;20251;-70
2022/11/12 14:47:05;;;;;;;26.20;11.03;;;14.20;99.90;;;;;;5076013;28;20338;-69
2022/11/12 14:49:52;;;;;;;22.57;9.90;;;14.20;99.90;;;;;;5076317;28;20766;-70
2022/11/12 14:52:43;;;;;;;19.20;10.57;;;14.10;99.90;;;;;;5075721;28;20607;-72
2022/11/12 14:55:32;;;;;;;22.27;11.67;;;14.10;99.90;;;;;;5075784;28;20237;-71
2022/11/12 14:58:21;;;;;;;14.90;11.60;;;14.20;99.90;;;;;;5075604;28;20568;-72
2022/11/12 15:01:24;;;;;;;23.00;12.33;;;14.20;99.90;;;;;;5075473;28;20729;-70